PWSweather.com
Personal Weather Stations
Station Observations
UPSTATEWEATHER
Silver Leaf, Greer, SC 29650

Silver LeafGreer, SC 29650

Lat: 34.8955792, Lon: -82.2868211

Elevation: 875

Station Type: Davis Vantage Vue

https://www.upstateweather.com

High Low Average
Temperature 93.2°F34.0°C 63.2°F17.3°C 77.3°F25.2°C
Dew Point 71.2°F21.8°C 61.0°F16.1°C 66.6°F19.2°C
Winds 2.3 mph 3.7 kmh Calm Calm Calm NCalm N
Wind Gusts 3.5 mph5.6 kmh -- --
Humidity 93% 42% 72%
Pressure 29.93 in1013.5 mb 29.82 in1009.8 mb -
Precipitation 0.00 in0.0 mm - -
Hour Temp Dew Point Humidity Winds Wind Gusts Pressure Precip Precip Rate Daily Precip Total
12:00 AM 68.7°F20.4°C 63.0°F17.2°C 82% Calm Calm -- 29.89 in1012.2 mb - 0.00 in0.0 mm 0.00 in0.0 mm
12:15 AM 68.6°F20.3°C 63.5°F17.5°C 84% Calm Calm -- 29.89 in1012.2 mb - 0.00 in0.0 mm 0.00 in0.0 mm
12:30 AM 68.3°F20.2°C 63.6°F17.6°C 85% Calm Calm -- 29.89 in1012.2 mb - 0.00 in0.0 mm 0.00 in0.0 mm
12:45 AM 68.2°F20.1°C 63.2°F17.3°C 84% Calm Calm -- 29.89 in1012.2 mb - 0.00 in0.0 mm 0.00 in0.0 mm
01:00 AM 68.2°F20.1°C 62.8°F17.1°C 83% Calm Calm -- 29.89 in1012.2 mb - 0.00 in0.0 mm 0.00 in0.0 mm
01:15 AM 68.3°F20.2°C 63.6°F17.6°C 85% Calm Calm -- 29.88 in1011.9 mb - 0.00 in0.0 mm 0.00 in0.0 mm
01:30 AM 68.1°F20.1°C 63.4°F17.4°C 85% Calm Calm -- 29.88 in1011.9 mb - 0.00 in0.0 mm 0.00 in0.0 mm
01:45 AM 68.3°F20.2°C 63.6°F17.6°C 85% Calm Calm -- 29.87 in1011.5 mb - 0.00 in0.0 mm 0.00 in0.0 mm
02:00 AM 68.2°F20.1°C 63.5°F17.5°C 85% Calm Calm -- 29.87 in1011.5 mb - 0.00 in0.0 mm 0.00 in0.0 mm
02:15 AM 67.7°F19.8°C 63.0°F17.2°C 85% Calm Calm -- 29.86 in1011.2 mb - 0.00 in0.0 mm 0.00 in0.0 mm
02:30 AM 67.3°F19.6°C 62.6°F17.0°C 85% Calm Calm -- 29.86 in1011.2 mb - 0.00 in0.0 mm 0.00 in0.0 mm
02:45 AM 66.9°F19.4°C 62.9°F17.2°C 87% Calm Calm -- 29.86 in1011.2 mb - 0.00 in0.0 mm 0.00 in0.0 mm
03:00 AM 66.2°F19.0°C 62.5°F16.9°C 88% Calm Calm -- 29.86 in1011.2 mb - 0.00 in0.0 mm 0.00 in0.0 mm
03:15 AM 66.2°F19.0°C 62.5°F16.9°C 88% Calm Calm -- 29.85 in1010.8 mb - 0.00 in0.0 mm 0.00 in0.0 mm
03:30 AM 66.3°F19.1°C 62.3°F16.8°C 87% Calm Calm -- 29.86 in1011.2 mb - 0.00 in0.0 mm 0.00 in0.0 mm
03:45 AM 66.2°F19.0°C 62.5°F16.9°C 88% Calm Calm -- 29.86 in1011.2 mb - 0.00 in0.0 mm 0.00 in0.0 mm
04:00 AM 65.6°F18.7°C 62.3°F16.8°C 89% Calm Calm -- 29.86 in1011.2 mb - 0.00 in0.0 mm 0.00 in0.0 mm
04:15 AM 65.1°F18.4°C 62.1°F16.7°C 90% Calm Calm -- 29.87 in1011.5 mb - 0.00 in0.0 mm 0.00 in0.0 mm
04:30 AM 64.9°F18.3°C 61.9°F16.6°C 90% Calm Calm -- 29.87 in1011.5 mb - 0.00 in0.0 mm 0.00 in0.0 mm
04:45 AM 64.8°F18.2°C 61.8°F16.6°C 90% Calm Calm -- 29.87 in1011.5 mb - 0.00 in0.0 mm 0.00 in0.0 mm
05:00 AM 64.7°F18.2°C 62.0°F16.7°C 91% Calm Calm -- 29.87 in1011.5 mb - 0.00 in0.0 mm 0.00 in0.0 mm
05:15 AM 64.1°F17.8°C 61.5°F16.4°C 91% Calm Calm -- 29.88 in1011.9 mb - 0.00 in0.0 mm 0.00 in0.0 mm
05:30 AM 63.5°F17.5°C 61.1°F16.2°C 92% Calm Calm -- 29.88 in1011.9 mb - 0.00 in0.0 mm 0.00 in0.0 mm
05:45 AM 63.3°F17.4°C 61.0°F16.1°C 92% Calm Calm -- 29.88 in1011.9 mb - 0.00 in0.0 mm 0.00 in0.0 mm
06:00 AM 63.5°F17.5°C 61.1°F16.2°C 92% Calm Calm -- 29.89 in1012.2 mb - 0.00 in0.0 mm 0.00 in0.0 mm
06:15 AM 63.5°F17.5°C 61.1°F16.2°C 92% Calm Calm -- 29.89 in1012.2 mb - 0.00 in0.0 mm 0.00 in0.0 mm
06:30 AM 63.2°F17.3°C 61.1°F16.2°C 93% Calm Calm -- 29.90 in1012.5 mb - 0.00 in0.0 mm 0.00 in0.0 mm
06:45 AM 63.3°F17.4°C 61.2°F16.2°C 93% Calm Calm -- 29.90 in1012.5 mb - 0.00 in0.0 mm 0.00 in0.0 mm
07:00 AM 63.8°F17.7°C 61.4°F16.3°C 92% Calm Calm -- 29.90 in1012.5 mb - 0.00 in0.0 mm 0.00 in0.0 mm
07:15 AM 64.6°F18.1°C 62.2°F16.8°C 92% Calm Calm -- 29.91 in1012.9 mb - 0.00 in0.0 mm 0.00 in0.0 mm
07:30 AM 65.2°F18.4°C 62.9°F17.2°C 92% Calm Calm -- 29.91 in1012.9 mb - 0.00 in0.0 mm 0.00 in0.0 mm
07:45 AM 66.0°F18.9°C 63.0°F17.2°C 90% Calm Calm -- 29.91 in1012.9 mb - 0.00 in0.0 mm 0.00 in0.0 mm
08:00 AM 67.0°F19.4°C 63.4°F17.4°C 88% Calm Calm -- 29.90 in1012.5 mb - 0.00 in0.0 mm 0.00 in0.0 mm
08:15 AM 68.6°F20.3°C 64.5°F18.1°C 87% Calm Calm -- 29.91 in1012.9 mb - 0.00 in0.0 mm 0.00 in0.0 mm
08:30 AM 70.1°F21.2°C 65.4°F18.6°C 85% Calm Calm -- 29.91 in1012.9 mb - 0.00 in0.0 mm 0.00 in0.0 mm
08:45 AM 72.3°F22.4°C 65.7°F18.7°C 80% Calm Calm -- 29.91 in1012.9 mb - 0.00 in0.0 mm 0.00 in0.0 mm
09:00 AM 74.3°F23.5°C 66.2°F19.0°C 76% Calm Calm -- 29.91 in1012.9 mb - 0.00 in0.0 mm 0.00 in0.0 mm
09:15 AM 76.6°F24.8°C 66.9°F19.4°C 72% Calm Calm -- 29.91 in1012.9 mb - 0.00 in0.0 mm 0.00 in0.0 mm
09:30 AM 77.3°F25.2°C 65.5°F18.6°C 67% Calm Calm -- 29.91 in1012.9 mb - 0.00 in0.0 mm 0.00 in0.0 mm
09:45 AM 79.5°F26.4°C 63.4°F17.4°C 58% Calm Calm -- 29.91 in1012.9 mb - 0.00 in0.0 mm 0.00 in0.0 mm
10:00 AM 82.2°F27.9°C 64.4°F18.0°C 55% Calm Calm -- 29.91 in1012.9 mb - 0.00 in0.0 mm 0.00 in0.0 mm
10:15 AM 83.3°F28.5°C 66.0°F18.9°C 56% Calm Calm -- 29.91 in1012.9 mb - 0.00 in0.0 mm 0.00 in0.0 mm
10:30 AM 83.6°F28.7°C 65.7°F18.7°C 55% Calm Calm 1.2 mph1.9 kmh 29.90 in1012.5 mb - 0.00 in0.0 mm 0.00 in0.0 mm
10:45 AM 86.7°F30.4°C 66.9°F19.4°C 52% Calm Calm -- 29.90 in1012.5 mb - 0.00 in0.0 mm 0.00 in0.0 mm
11:00 AM 88.6°F31.4°C 67.6°F19.8°C 50% Calm Calm 1.2 mph1.9 kmh 29.89 in1012.2 mb - 0.00 in0.0 mm 0.00 in0.0 mm
11:15 AM 89.6°F32.0°C 67.9°F19.9°C 49% 2.3 mph N3.7 kmh N 2.3 mph3.7 kmh 29.89 in1012.2 mb - 0.00 in0.0 mm 0.00 in0.0 mm
11:30 AM 89.8°F32.1°C 68.7°F20.4°C 50% 1.2 mph N1.9 kmh N 3.5 mph5.6 kmh 29.88 in1011.9 mb - 0.00 in0.0 mm 0.00 in0.0 mm
11:45 AM 90.3°F32.4°C 70.3°F21.3°C 52% Calm Calm 1.2 mph1.9 kmh 29.87 in1011.5 mb - 0.00 in0.0 mm 0.00 in0.0 mm
12:00 PM 90.2°F32.3°C 69.6°F20.9°C 51% Calm Calm -- 29.87 in1011.5 mb - 0.00 in0.0 mm 0.00 in0.0 mm
12:15 PM 90.3°F32.4°C 69.7°F20.9°C 51% Calm Calm 1.2 mph1.9 kmh 29.86 in1011.2 mb - 0.00 in0.0 mm 0.00 in0.0 mm
12:30 PM 92.1°F33.4°C 69.0°F20.6°C 47% Calm Calm 1.2 mph1.9 kmh 29.86 in1011.2 mb - 0.00 in0.0 mm 0.00 in0.0 mm
12:45 PM 92.4°F33.6°C 69.2°F20.7°C 47% Calm Calm 1.2 mph1.9 kmh 29.86 in1011.2 mb - 0.00 in0.0 mm 0.00 in0.0 mm
01:00 PM 93.2°F34.0°C 69.3°F20.7°C 46% 1.2 mph N1.9 kmh N 1.2 mph1.9 kmh 29.85 in1010.8 mb - 0.00 in0.0 mm 0.00 in0.0 mm
01:15 PM 92.8°F33.8°C 67.7°F19.8°C 44% 1.2 mph N1.9 kmh N 2.3 mph3.7 kmh 29.85 in1010.8 mb - 0.00 in0.0 mm 0.00 in0.0 mm
01:30 PM 92.4°F33.6°C 66.0°F18.9°C 42% 2.3 mph N3.7 kmh N 2.3 mph3.7 kmh 29.84 in1010.5 mb - 0.00 in0.0 mm 0.00 in0.0 mm
01:45 PM 92.0°F33.3°C 68.3°F20.2°C 46% Calm Calm -- 29.84 in1010.5 mb - 0.00 in0.0 mm 0.00 in0.0 mm
02:00 PM 90.6°F32.6°C 68.8°F20.4°C 49% Calm Calm -- 29.84 in1010.5 mb - 0.00 in0.0 mm 0.00 in0.0 mm
02:15 PM 89.2°F31.8°C 67.5°F19.7°C 49% Calm Calm -- 29.83 in1010.2 mb - 0.00 in0.0 mm 0.00 in0.0 mm
02:30 PM 90.4°F32.4°C 70.4°F21.3°C 52% Calm Calm -- 29.83 in1010.2 mb - 0.00 in0.0 mm 0.00 in0.0 mm
02:45 PM 91.2°F32.9°C 69.4°F20.8°C 49% Calm Calm 1.2 mph1.9 kmh 29.82 in1009.8 mb - 0.00 in0.0 mm 0.00 in0.0 mm
03:00 PM 91.9°F33.3°C 67.5°F19.7°C 45% Calm Calm 1.2 mph1.9 kmh 29.82 in1009.8 mb - 0.00 in0.0 mm 0.00 in0.0 mm
03:15 PM 91.6°F33.1°C 70.3°F21.3°C 50% Calm Calm 1.2 mph1.9 kmh 29.82 in1009.8 mb - 0.00 in0.0 mm 0.00 in0.0 mm
03:30 PM 91.0°F32.8°C 69.2°F20.7°C 49% Calm Calm 1.2 mph1.9 kmh 29.83 in1010.2 mb - 0.00 in0.0 mm 0.00 in0.0 mm
03:45 PM 90.2°F32.3°C 69.0°F20.6°C 50% Calm Calm 1.2 mph1.9 kmh 29.82 in1009.8 mb - 0.00 in0.0 mm 0.00 in0.0 mm
04:00 PM 89.9°F32.2°C 68.8°F20.4°C 50% Calm Calm 2.3 mph3.7 kmh 29.82 in1009.8 mb - 0.00 in0.0 mm 0.00 in0.0 mm
04:15 PM 88.4°F31.3°C 69.6°F20.9°C 54% Calm Calm 1.2 mph1.9 kmh 29.83 in1010.2 mb - 0.00 in0.0 mm 0.00 in0.0 mm
04:30 PM 87.3°F30.7°C 69.7°F20.9°C 56% Calm Calm -- 29.82 in1009.8 mb - 0.00 in0.0 mm 0.00 in0.0 mm
04:45 PM 87.1°F30.6°C 70.0°F21.1°C 57% Calm Calm 1.2 mph1.9 kmh 29.82 in1009.8 mb - 0.00 in0.0 mm 0.00 in0.0 mm
05:00 PM 86.7°F30.4°C 70.7°F21.5°C 59% Calm Calm -- 29.82 in1009.8 mb - 0.00 in0.0 mm 0.00 in0.0 mm
05:15 PM 86.2°F30.1°C 71.2°F21.8°C 61% Calm Calm -- 29.83 in1010.2 mb - 0.00 in0.0 mm 0.00 in0.0 mm
05:30 PM 85.2°F29.6°C 70.2°F21.2°C 61% Calm Calm 1.2 mph1.9 kmh 29.83 in1010.2 mb - 0.00 in0.0 mm 0.00 in0.0 mm
05:45 PM 85.0°F29.4°C 70.0°F21.1°C 61% Calm Calm -- 29.84 in1010.5 mb - 0.00 in0.0 mm 0.00 in0.0 mm
06:00 PM 84.3°F29.1°C 70.3°F21.3°C 63% Calm Calm -- 29.84 in1010.5 mb - 0.00 in0.0 mm 0.00 in0.0 mm
06:15 PM 83.6°F28.7°C 70.1°F21.2°C 64% Calm Calm -- 29.84 in1010.5 mb - 0.00 in0.0 mm 0.00 in0.0 mm
06:30 PM 82.9°F28.3°C 70.4°F21.3°C 66% Calm Calm -- 29.85 in1010.8 mb - 0.00 in0.0 mm 0.00 in0.0 mm
06:45 PM 82.3°F27.9°C 70.2°F21.2°C 67% Calm Calm -- 29.86 in1011.2 mb - 0.00 in0.0 mm 0.00 in0.0 mm
07:00 PM 81.6°F27.6°C 70.4°F21.3°C 69% Calm Calm -- 29.86 in1011.2 mb - 0.00 in0.0 mm 0.00 in0.0 mm
07:15 PM 81.0°F27.2°C 70.7°F21.5°C 71% Calm Calm -- 29.87 in1011.5 mb - 0.00 in0.0 mm 0.00 in0.0 mm
07:30 PM 80.1°F26.7°C 70.2°F21.2°C 72% Calm Calm -- 29.87 in1011.5 mb - 0.00 in0.0 mm 0.00 in0.0 mm
07:45 PM 79.4°F26.3°C 70.4°F21.3°C 74% Calm Calm -- 29.88 in1011.9 mb - 0.00 in0.0 mm 0.00 in0.0 mm
08:00 PM 79.0°F26.1°C 70.4°F21.3°C 75% Calm Calm -- 29.89 in1012.2 mb - 0.00 in0.0 mm 0.00 in0.0 mm
08:15 PM 78.6°F25.9°C 70.4°F21.3°C 76% Calm Calm -- 29.89 in1012.2 mb - 0.00 in0.0 mm 0.00 in0.0 mm
08:30 PM 78.0°F25.6°C 70.2°F21.2°C 77% Calm Calm -- 29.90 in1012.5 mb - 0.00 in0.0 mm 0.00 in0.0 mm
08:45 PM 77.7°F25.4°C 70.3°F21.3°C 78% Calm Calm -- 29.90 in1012.5 mb - 0.00 in0.0 mm 0.00 in0.0 mm
09:00 PM 77.2°F25.1°C 70.6°F21.4°C 80% Calm Calm -- 29.91 in1012.9 mb - 0.00 in0.0 mm 0.00 in0.0 mm
09:15 PM 76.6°F24.8°C 70.0°F21.1°C 80% Calm Calm -- 29.91 in1012.9 mb - 0.00 in0.0 mm 0.00 in0.0 mm
09:30 PM 76.2°F24.6°C 69.9°F21.1°C 81% Calm Calm -- 29.92 in1013.2 mb - 0.00 in0.0 mm 0.00 in0.0 mm
09:45 PM 76.0°F24.4°C 69.4°F20.8°C 80% Calm Calm -- 29.92 in1013.2 mb - 0.00 in0.0 mm 0.00 in0.0 mm
10:00 PM 76.0°F24.4°C 69.7°F20.9°C 81% Calm Calm -- 29.93 in1013.5 mb - 0.00 in0.0 mm 0.00 in0.0 mm
10:15 PM 75.7°F24.3°C 69.5°F20.8°C 81% Calm Calm -- 29.93 in1013.5 mb - 0.00 in0.0 mm 0.00 in0.0 mm
10:30 PM 75.4°F24.1°C 69.5°F20.8°C 82% Calm Calm -- 29.92 in1013.2 mb - 0.00 in0.0 mm 0.00 in0.0 mm
10:45 PM 75.1°F23.9°C 69.2°F20.7°C 82% Calm Calm -- 29.93 in1013.5 mb - 0.00 in0.0 mm 0.00 in0.0 mm
11:00 PM 74.9°F23.8°C 69.4°F20.8°C 83% Calm Calm -- 29.93 in1013.5 mb - 0.00 in0.0 mm 0.00 in0.0 mm
11:15 PM 74.5°F23.6°C 69.0°F20.6°C 83% Calm Calm -- 29.93 in1013.5 mb - 0.00 in0.0 mm 0.00 in0.0 mm
11:30 PM 74.0°F23.3°C 68.9°F20.5°C 84% Calm Calm -- 29.93 in1013.5 mb - 0.00 in0.0 mm 0.00 in0.0 mm
11:45 PM 73.7°F23.2°C 68.9°F20.5°C 85% Calm Calm -- 29.93 in1013.5 mb - 0.00 in0.0 mm 0.00 in0.0 mm